East Ellijay, Georgia
Current Conditions -  °F | °C
As of 10:15 PM on Wednesday 22 Oct 2014 (Local Time) from KDNN Reporting Station
Clear Clear  
Wind Chill: 50°   Ceiling: Unl
Heat Index: 50°   Visibility: 10mi
Dew Point: 43°   Wind: 13mph
Humidity: 76%   Direction: 350°N
Pressure: 30.17"   Gusts: 16mph
Location:  34.68°N, 84.47°W
Report Text: KDNN 230215Z AUTO 35011G14KT 10SM CLR 10/06 A3017 RMK AO2
Loading
Personal Weather Stations






























Interactive Weather Map
Tropical Storm Tracking
New forecast layout! Learn more

10-Day Weather Forecast

Advertisements
Track Severe Weather on mobile